createdAt,value
2024-01-30T00:02:36.308Z,99.99
2024-01-30T00:05:07.229Z,99.99
2024-01-30T00:07:38.056Z,99.99
2024-01-30T00:12:51.914Z,99.99
2024-01-30T00:15:26.871Z,99.99
2024-01-30T00:18:01.037Z,99.99
2024-01-30T00:24:06.042Z,99.99
2024-01-30T00:26:36.440Z,99.99
2024-01-30T00:29:08.969Z,99.99
2024-01-30T00:31:49.138Z,99.99
2024-01-30T00:34:19.500Z,99.99
2024-01-30T00:36:49.545Z,99.99
2024-01-30T00:39:21.724Z,99.99
2024-01-30T00:41:51.969Z,99.99
2024-01-30T00:44:24.842Z,99.99
2024-01-30T00:47:00.980Z,99.99
2024-01-30T00:49:33.818Z,99.99
2024-01-30T00:52:05.839Z,99.99
2024-01-30T00:54:45.834Z,99.99
2024-01-30T00:57:16.261Z,99.99
2024-01-30T00:59:46.128Z,99.99
2024-01-30T01:02:17.420Z,99.99
2024-01-30T01:05:02.760Z,99.99
2024-01-30T01:07:38.014Z,99.99
2024-01-30T01:10:14.507Z,99.99
2024-01-30T01:12:48.475Z,99.99
2024-01-30T01:15:22.125Z,99.99
2024-01-30T01:18:17.273Z,99.99
2024-01-30T01:20:47.514Z,99.99
2024-01-30T01:23:17.352Z,99.99
2024-01-30T01:25:47.200Z,99.99
2024-01-30T01:28:17.704Z,99.99
2024-01-30T01:30:48.630Z,99.99
2024-01-30T01:33:20.605Z,99.99
2024-01-30T01:35:50.614Z,99.99
2024-01-30T01:38:21.540Z,99.99
2024-01-30T01:40:51.934Z,99.99
2024-01-30T01:43:22.474Z,99.99
2024-01-30T01:45:53.484Z,99.99
2024-01-30T01:48:24.113Z,99.99
2024-01-30T01:50:55.619Z,99.99
2024-01-30T01:53:26.316Z,99.99
2024-01-30T01:55:57.745Z,99.99
2024-01-30T01:58:33.483Z,99.99
2024-01-30T02:01:06.291Z,99.99
2024-01-30T02:03:37.718Z,99.99
2024-01-30T02:06:07.945Z,99.99
2024-01-30T02:08:40.940Z,99.99
2024-01-30T02:11:12.434Z,99.99
2024-01-30T02:13:44.197Z,99.99
2024-01-30T02:16:14.243Z,99.99
2024-01-30T02:18:45.717Z,99.99
2024-01-30T02:21:18.292Z,99.99
2024-01-30T02:23:55.229Z,99.99
2024-01-30T02:26:25.265Z,99.99
2024-01-30T02:28:55.192Z,99.99
2024-01-30T02:31:26.489Z,99.99
2024-01-30T02:33:57.742Z,99.99
2024-01-30T02:36:28.025Z,99.99
2024-01-30T02:38:57.952Z,99.99
2024-01-30T02:41:27.797Z,99.99
2024-01-30T02:43:58.577Z,99.99
2024-01-30T02:46:28.428Z,99.99
2024-01-30T02:48:59.256Z,99.99
2024-01-30T02:51:29.391Z,99.99
2024-01-30T02:53:59.248Z,99.99
2024-01-30T02:56:29.301Z,99.99
2024-01-30T02:58:59.459Z,99.99
2024-01-30T03:01:29.451Z,99.99
2024-01-30T03:03:59.491Z,99.99
2024-01-30T03:06:29.421Z,99.99
2024-01-30T03:09:00.259Z,99.99
2024-01-30T03:11:31.761Z,99.99
2024-01-30T03:14:02.138Z,99.99
2024-01-30T03:16:32.587Z,99.99
2024-01-30T03:19:04.319Z,99.99
2024-01-30T03:21:34.549Z,99.99
2024-01-30T03:24:05.064Z,99.99
2024-01-30T03:26:35.133Z,99.99
2024-01-30T03:29:04.991Z,99.99
2024-01-30T03:31:34.903Z,99.99
2024-01-30T03:34:05.124Z,99.99
2024-01-30T03:36:36.693Z,99.99
2024-01-30T03:39:06.970Z,99.99
2024-01-30T03:41:36.855Z,99.99
2024-01-30T03:44:06.977Z,99.99
2024-01-30T03:46:36.754Z,99.99
2024-01-30T03:49:08.088Z,99.99
2024-01-30T03:51:38.111Z,99.99
2024-01-30T03:54:11.793Z,99.99
2024-01-30T03:56:41.785Z,99.99
2024-01-30T03:59:12.010Z,99.99
2024-01-30T04:01:42.738Z,99.99
2024-01-30T04:04:13.267Z,99.99
2024-01-30T04:06:44.136Z,99.99
2024-01-30T04:09:15.604Z,99.99
2024-01-30T04:11:45.910Z,99.99
2024-01-30T04:14:17.274Z,99.99
2024-01-30T04:16:48.651Z,99.99
2024-01-30T04:19:18.981Z,99.99
2024-01-30T04:21:49.450Z,99.99
2024-01-30T04:24:20.939Z,99.99
2024-01-30T04:26:51.112Z,99.99
2024-01-30T04:29:21.796Z,99.99
2024-01-30T04:31:51.586Z,99.99
2024-01-30T04:34:21.908Z,99.99
2024-01-30T04:36:51.794Z,99.99
2024-01-30T04:39:22.131Z,99.99
2024-01-30T04:41:52.003Z,99.99
2024-01-30T04:44:21.928Z,99.99
2024-01-30T04:46:51.777Z,99.99
2024-01-30T04:49:21.732Z,99.99
2024-01-30T04:51:51.663Z,99.99
2024-01-30T04:54:21.545Z,99.99
2024-01-30T04:56:51.737Z,99.99
2024-01-30T04:59:21.651Z,99.99
2024-01-30T05:01:51.655Z,99.99
2024-01-30T05:04:21.620Z,99.99
2024-01-30T05:06:51.585Z,99.99
2024-01-30T05:09:21.468Z,99.99
2024-01-30T05:11:51.344Z,99.99
2024-01-30T05:14:21.273Z,99.99
2024-01-30T05:16:51.884Z,99.99
2024-01-30T05:19:23.890Z,99.99
2024-01-30T05:21:53.982Z,99.99
2024-01-30T05:24:25.302Z,99.99
2024-01-30T05:26:56.632Z,99.99
2024-01-30T05:29:28.166Z,99.99
2024-01-30T05:31:59.489Z,99.99
2024-01-30T05:34:31.191Z,99.99
2024-01-30T05:37:02.840Z,99.99
2024-01-30T05:39:35.309Z,99.99
2024-01-30T05:42:06.030Z,99.99
2024-01-30T05:44:37.135Z,99.99
2024-01-30T05:47:07.170Z,99.99
2024-01-30T05:49:37.226Z,99.99
2024-01-30T05:52:07.767Z,99.99
2024-01-30T05:54:37.696Z,99.99
2024-01-30T05:57:08.467Z,99.99
2024-01-30T05:59:40.765Z,99.99
2024-01-30T06:02:13.864Z,99.99
2024-01-30T06:04:44.423Z,99.99
2024-01-30T06:07:15.478Z,99.99
2024-01-30T06:09:45.546Z,99.99
2024-01-30T06:12:15.870Z,99.99
2024-01-30T06:14:47.595Z,99.99
2024-01-30T06:17:17.582Z,99.99
2024-01-30T06:19:47.333Z,99.99
2024-01-30T06:22:18.698Z,99.99
2024-01-30T06:24:52.121Z,99.99
2024-01-30T06:27:22.073Z,99.99
2024-01-30T06:29:51.923Z,99.99
2024-01-30T06:32:21.739Z,99.99
2024-01-30T06:34:52.068Z,99.99
2024-01-30T06:37:23.045Z,99.99
2024-01-30T06:39:54.458Z,99.99
2024-01-30T06:42:25.105Z,99.99
2024-01-30T06:44:55.160Z,99.99
2024-01-30T06:47:25.524Z,99.99
2024-01-30T06:49:55.751Z,99.99
2024-01-30T06:52:26.650Z,99.99
2024-01-30T06:54:56.979Z,99.99
2024-01-30T06:57:27.218Z,99.99
2024-01-30T06:59:59.924Z,99.99
2024-01-30T07:02:30.277Z,99.99
2024-01-30T07:05:00.180Z,99.99
2024-01-30T07:07:30.949Z,99.99
2024-01-30T07:10:01.646Z,99.99
2024-01-30T07:12:33.867Z,99.99
2024-01-30T07:15:05.781Z,99.99
2024-01-30T07:17:35.785Z,99.99
2024-01-30T07:20:06.118Z,99.99
2024-01-30T07:22:36.181Z,99.99
2024-01-30T07:25:09.272Z,99.99
2024-01-30T07:27:39.560Z,99.99
2024-01-30T07:30:11.661Z,99.99
2024-01-30T07:32:41.974Z,99.99
2024-01-30T07:35:13.690Z,99.99
2024-01-30T07:37:44.398Z,99.99
2024-01-30T07:40:14.548Z,99.99
2024-01-30T07:42:47.217Z,99.99
2024-01-30T07:45:18.739Z,99.99
2024-01-30T07:47:49.913Z,99.99
2024-01-30T07:50:21.259Z,99.99
2024-01-30T07:52:53.575Z,99.99
2024-01-30T07:55:29.780Z,99.99
2024-01-30T07:58:01.149Z,99.99
2024-01-30T08:00:31.443Z,99.99
2024-01-30T08:03:03.687Z,99.99
2024-01-30T08:05:33.840Z,99.99
2024-01-30T08:08:04.999Z,99.99
2024-01-30T08:10:35.126Z,99.99
2024-01-30T08:13:07.317Z,99.99
2024-01-30T08:15:37.685Z,99.99
2024-01-30T08:18:09.367Z,99.99
2024-01-30T08:20:39.429Z,99.99
2024-01-30T08:23:09.788Z,99.99
2024-01-30T08:25:40.427Z,99.99
2024-01-30T08:28:11.801Z,99.99
2024-01-30T08:30:43.833Z,99.99
2024-01-30T08:33:14.117Z,99.99
2024-01-30T08:35:44.674Z,99.99
2024-01-30T08:38:19.079Z,99.99
2024-01-30T08:40:49.009Z,99.99
2024-01-30T08:43:18.780Z,99.99
2024-01-30T08:45:49.175Z,99.99
2024-01-30T08:48:20.183Z,99.99
2024-01-30T08:50:50.380Z,99.99
2024-01-30T08:53:20.721Z,99.99
2024-01-30T08:55:50.974Z,99.99
2024-01-30T08:58:21.797Z,99.99
2024-01-30T09:00:55.515Z,99.99
2024-01-30T09:03:26.336Z,99.99
2024-01-30T09:05:56.459Z,99.99
2024-01-30T09:08:26.383Z,99.99
2024-01-30T09:10:57.185Z,99.99
2024-01-30T09:13:27.430Z,99.99
2024-01-30T09:15:58.138Z,99.99
2024-01-30T09:18:28.524Z,99.99
2024-01-30T09:20:59.361Z,99.99
2024-01-30T09:23:30.857Z,99.99
2024-01-30T09:26:01.111Z,99.99
2024-01-30T09:28:31.980Z,99.99
2024-01-30T09:31:02.409Z,99.99
2024-01-30T09:33:32.273Z,99.99
2024-01-30T09:36:02.072Z,99.99
2024-01-30T09:38:31.962Z,99.99
2024-01-30T09:41:06.544Z,99.99
2024-01-30T09:43:39.817Z,99.99
2024-01-30T09:46:17.661Z,99.99
2024-01-30T09:48:50.328Z,99.99
2024-01-30T09:51:21.332Z,99.99
2024-01-30T09:53:52.231Z,99.99
2024-01-30T09:56:23.506Z,99.99
2024-01-30T09:58:53.524Z,99.99
2024-01-30T10:01:23.540Z,99.99
2024-01-30T10:03:57.434Z,99.99
2024-01-30T10:06:28.257Z,99.99
2024-01-30T10:08:59.281Z,99.99
2024-01-30T10:11:29.773Z,99.81
2024-01-30T10:13:59.993Z,98.45
2024-01-30T10:16:30.438Z,97.01
2024-01-30T10:19:02.291Z,96.51
2024-01-30T10:21:37.057Z,95.74
2024-01-30T10:24:07.907Z,94.28
2024-01-30T10:26:40.602Z,93.67
2024-01-30T10:29:11.226Z,91.99
2024-01-30T10:31:41.435Z,90.68
2024-01-30T10:34:16.943Z,89.20
2024-01-30T10:36:58.376Z,88.55
2024-01-30T10:39:34.741Z,88.92
2024-01-30T10:42:07.750Z,87.86
2024-01-30T10:45:06.726Z,88.90
2024-01-30T10:47:39.326Z,87.39
2024-01-30T10:50:13.100Z,87.42
2024-01-30T10:52:47.378Z,86.55
2024-01-30T10:55:21.116Z,85.88
2024-01-30T10:57:51.885Z,85.11
2024-01-30T11:00:25.876Z,82.47
2024-01-30T11:02:56.948Z,80.62
2024-01-30T11:05:32.807Z,81.33
2024-01-30T11:08:28.487Z,81.20
2024-01-30T11:11:02.124Z,79.56
2024-01-30T11:13:34.165Z,79.53
2024-01-30T11:16:06.190Z,79.66
2024-01-30T11:18:40.226Z,78.71
2024-01-30T11:21:10.729Z,77.47
2024-01-30T11:23:41.677Z,76.19
2024-01-30T11:26:14.290Z,75.16
2024-01-30T11:28:44.524Z,74.31
2024-01-30T11:31:22.349Z,75.13
2024-01-30T11:33:56.292Z,75.21
2024-01-30T11:36:29.247Z,73.98
2024-01-30T11:39:00.682Z,73.60
2024-01-30T11:41:32.106Z,71.82
2024-01-30T11:44:02.552Z,72.30
2024-01-30T11:46:32.471Z,73.05
2024-01-30T11:49:02.478Z,73.05
2024-01-30T11:51:34.019Z,73.77
2024-01-30T11:54:04.433Z,74.96
2024-01-30T11:56:34.581Z,74.99
2024-01-30T11:59:04.468Z,75.52
2024-01-30T12:01:34.883Z,74.64
2024-01-30T12:04:05.836Z,75.21
2024-01-30T12:06:36.488Z,75.03
2024-01-30T12:09:06.653Z,75.25
2024-01-30T12:11:49.332Z,76.82
2024-01-30T12:14:20.245Z,74.63
2024-01-30T12:16:53.651Z,74.06
2024-01-30T12:19:38.572Z,77.03
2024-01-30T12:22:13.819Z,75.26
2024-01-30T12:24:49.452Z,74.10
2024-01-30T12:27:20.284Z,74.47
2024-01-30T12:29:51.957Z,72.29
2024-01-30T12:32:21.977Z,70.10
2024-01-30T12:34:57.369Z,70.59
2024-01-30T12:37:41.820Z,70.25
2024-01-30T12:43:35.107Z,69.26
2024-01-30T12:46:33.679Z,66.90
2024-01-30T12:49:04.829Z,64.24
2024-01-30T12:51:38.828Z,63.25
2024-01-30T12:54:09.537Z,63.06
2024-01-30T12:56:39.493Z,63.80
2024-01-30T12:59:09.375Z,63.80
2024-01-30T13:01:39.451Z,65.73
2024-01-30T13:04:09.411Z,64.35
2024-01-30T13:06:39.531Z,66.99
2024-01-30T13:09:09.788Z,67.63
2024-01-30T13:11:40.461Z,68.33
2024-01-30T13:14:10.347Z,68.15
2024-01-30T13:16:41.723Z,66.61
2024-01-30T13:19:12.102Z,64.77
2024-01-30T13:21:42.551Z,63.16
2024-01-30T13:24:13.570Z,61.00
2024-01-30T13:26:46.259Z,60.25
2024-01-30T13:29:16.274Z,59.49
2024-01-30T13:31:48.314Z,63.13
2024-01-30T13:34:18.896Z,63.60
2024-01-30T13:36:50.985Z,64.11
2024-01-30T13:39:23.377Z,64.74
2024-01-30T13:41:54.708Z,65.21
2024-01-30T13:44:28.512Z,63.64
2024-01-30T13:46:59.345Z,65.44
2024-01-30T13:49:29.570Z,65.70
2024-01-30T13:52:01.698Z,64.79
2024-01-30T13:54:33.149Z,65.16
2024-01-30T13:57:04.890Z,64.24
2024-01-30T13:59:34.407Z,66.94
2024-01-30T14:02:04.396Z,65.07
2024-01-30T14:04:34.887Z,63.62
2024-01-30T14:07:05.930Z,63.76
2024-01-30T14:09:36.498Z,64.32
2024-01-30T14:12:06.759Z,65.95
2024-01-30T14:14:36.956Z,65.63
2024-01-30T14:17:09.426Z,64.45
2024-01-30T14:19:39.551Z,65.94
2024-01-30T14:22:10.986Z,67.54
2024-01-30T14:24:43.649Z,67.03
2024-01-30T14:27:41.011Z,68.05
2024-01-30T14:30:15.360Z,66.38
2024-01-30T14:35:53.237Z,66.24
2024-01-30T14:38:23.717Z,63.80
2024-01-30T14:41:15.835Z,64.37
2024-01-30T14:43:58.193Z,60.95
2024-01-30T14:46:30.128Z,62.15
2024-01-30T14:49:01.576Z,61.19
2024-01-30T14:51:32.784Z,63.82
2024-01-30T14:54:02.907Z,63.04
2024-01-30T14:56:32.904Z,62.24
2024-01-30T14:59:03.336Z,62.71
2024-01-30T15:01:34.217Z,61.79
2024-01-30T15:04:04.796Z,61.16
2024-01-30T15:06:35.789Z,62.36
2024-01-30T15:09:06.256Z,65.20
2024-01-30T15:11:37.833Z,67.88
2024-01-30T15:14:10.361Z,68.36
2024-01-30T15:16:40.821Z,67.64
2024-01-30T15:19:11.149Z,67.47
2024-01-30T15:21:41.300Z,68.02
2024-01-30T15:24:11.677Z,67.95
2024-01-30T15:26:41.544Z,67.87
2024-01-30T15:29:12.082Z,67.33
2024-01-30T15:31:41.986Z,66.25
2024-01-30T15:34:11.974Z,66.26
2024-01-30T15:39:31.182Z,69.33
2024-01-30T15:42:01.487Z,67.30
2024-01-30T15:44:33.102Z,66.98
2024-01-30T15:47:03.630Z,64.93
2024-01-30T15:49:34.090Z,65.75
2024-01-30T15:52:04.671Z,66.36
2024-01-30T15:54:35.709Z,65.53
2024-01-30T15:57:06.436Z,66.59
2024-01-30T15:59:37.090Z,66.16
2024-01-30T16:02:10.661Z,64.74
2024-01-30T16:04:41.101Z,66.56
2024-01-30T16:07:11.034Z,64.10
2024-01-30T16:09:41.745Z,65.07
2024-01-30T16:12:13.027Z,66.18
2024-01-30T16:14:43.038Z,66.20
2024-01-30T16:17:19.393Z,64.52
2024-01-30T16:19:52.484Z,65.59
2024-01-30T16:22:23.333Z,66.44
2024-01-30T16:25:20.000Z,67.69
2024-01-30T16:27:50.278Z,65.42
2024-01-30T16:30:20.738Z,65.18
2024-01-30T16:32:53.440Z,61.21
2024-01-30T16:35:44.060Z,60.44
2024-01-30T16:38:38.928Z,60.99
2024-01-30T16:41:09.180Z,60.91
2024-01-30T16:43:39.074Z,61.59
2024-01-30T16:46:09.020Z,60.56
2024-01-30T16:48:39.284Z,62.48
2024-01-30T16:51:09.700Z,59.93
2024-01-30T16:53:39.932Z,60.71
2024-01-30T16:56:11.901Z,58.80
2024-01-30T16:58:41.986Z,58.92
2024-01-30T17:04:48.711Z,60.99
2024-01-30T17:05:20.850Z,57.97
2024-01-30T17:07:19.074Z,60.52
2024-01-30T17:09:49.124Z,59.03
2024-01-30T17:12:19.407Z,59.13
2024-01-30T17:14:52.825Z,60.80
2024-01-30T17:17:22.972Z,60.56
2024-01-30T17:19:53.122Z,60.08
2024-01-30T17:22:23.952Z,61.37
2024-01-30T17:24:55.775Z,60.76
2024-01-30T17:27:26.014Z,62.50
2024-01-30T17:30:05.577Z,60.44
2024-01-30T17:32:37.643Z,61.21
2024-01-30T17:35:09.653Z,62.74
2024-01-30T17:37:40.832Z,63.69
2024-01-30T17:40:11.777Z,66.74
2024-01-30T17:42:42.500Z,66.62
2024-01-30T17:45:16.397Z,64.97
2024-01-30T17:47:46.554Z,63.13
2024-01-30T17:50:16.882Z,66.08
2024-01-30T17:52:47.666Z,65.95
2024-01-30T17:55:18.395Z,64.75
2024-01-30T17:57:48.751Z,63.85
2024-01-30T18:00:19.881Z,63.48
2024-01-30T18:02:50.780Z,62.54
2024-01-30T18:05:21.121Z,62.51
2024-01-30T18:07:51.263Z,64.99
2024-01-30T18:10:21.457Z,62.95
2024-01-30T18:12:54.112Z,66.19
2024-01-30T18:15:52.826Z,62.78
2024-01-30T18:18:31.350Z,65.18
2024-01-30T18:21:03.036Z,65.33
2024-01-30T18:23:33.376Z,64.19
2024-01-30T18:26:03.479Z,63.61
2024-01-30T18:28:33.681Z,64.22
2024-01-30T18:31:04.399Z,61.93
2024-01-30T18:33:34.328Z,60.25
2024-01-30T18:36:04.511Z,60.43
2024-01-30T18:38:34.800Z,62.22
2024-01-30T18:41:05.770Z,63.36
2024-01-30T18:43:36.933Z,63.31
2024-01-30T18:46:07.761Z,63.43
2024-01-30T18:48:39.368Z,62.63
2024-01-30T18:51:10.413Z,62.72
2024-01-30T18:53:40.679Z,62.84
2024-01-30T18:56:11.130Z,62.65
2024-01-30T18:58:41.136Z,62.68
2024-01-30T19:01:11.268Z,63.33
2024-01-30T19:03:41.325Z,64.30
2024-01-30T19:06:12.469Z,64.34
2024-01-30T19:08:43.042Z,63.80
2024-01-30T19:11:23.462Z,63.18
2024-01-30T19:13:54.589Z,63.95
2024-01-30T19:16:24.914Z,64.82
2024-01-30T19:18:56.309Z,64.92
2024-01-30T19:21:27.299Z,64.31
2024-01-30T19:24:01.377Z,64.19
2024-01-30T19:26:32.351Z,65.05
2024-01-30T19:29:03.030Z,64.37
2024-01-30T19:31:33.860Z,63.35
2024-01-30T19:34:04.391Z,64.94
2024-01-30T19:36:34.296Z,64.75
2024-01-30T19:39:04.615Z,65.76
2024-01-30T19:41:34.792Z,66.70
2024-01-30T19:44:05.421Z,67.48
2024-01-30T19:46:35.436Z,67.68
2024-01-30T19:49:05.516Z,67.42
2024-01-30T19:51:35.918Z,68.48
2024-01-30T19:54:06.835Z,67.36
2024-01-30T19:56:37.764Z,68.74
2024-01-30T19:59:08.676Z,67.73
2024-01-30T20:01:40.042Z,67.65
2024-01-30T20:04:14.035Z,67.74
2024-01-30T20:06:45.692Z,68.31
2024-01-30T20:09:15.913Z,67.54
2024-01-30T20:11:46.688Z,67.76
2024-01-30T20:14:17.071Z,68.20
2024-01-30T20:16:47.550Z,68.42
2024-01-30T20:19:18.877Z,68.20
2024-01-30T20:21:50.503Z,68.04
2024-01-30T20:24:20.532Z,68.04
2024-01-30T20:26:51.286Z,68.26
2024-01-30T20:29:22.561Z,68.54
2024-01-30T20:31:53.056Z,67.24
2024-01-30T20:34:23.157Z,68.68
2024-01-30T20:37:17.913Z,69.23
2024-01-30T20:39:57.824Z,68.92
2024-01-30T20:45:35.766Z,69.27
2024-01-30T20:48:07.071Z,69.67
2024-01-30T20:50:51.849Z,70.07
2024-01-30T20:53:23.248Z,69.71
2024-01-30T20:55:53.343Z,69.70
2024-01-30T20:58:27.623Z,69.78
2024-01-30T21:01:10.376Z,69.86
2024-01-30T21:03:42.028Z,70.12
2024-01-30T21:06:12.125Z,68.94
2024-01-30T21:08:45.690Z,69.78
2024-01-30T21:11:17.194Z,70.14
2024-01-30T21:13:48.245Z,70.58
2024-01-30T21:16:20.007Z,70.80
2024-01-30T21:18:49.890Z,70.94
2024-01-30T21:21:20.765Z,75.14
2024-01-30T21:23:51.583Z,76.33
2024-01-30T21:26:22.363Z,76.92
2024-01-30T21:28:53.436Z,78.59
2024-01-30T21:31:24.184Z,74.74
2024-01-30T21:33:55.113Z,75.53
2024-01-30T21:36:26.386Z,76.72
2024-01-30T21:38:56.504Z,76.49
2024-01-30T21:41:26.689Z,77.98
2024-01-30T21:43:57.791Z,77.95
2024-01-30T21:46:29.391Z,77.95
2024-01-30T21:48:59.684Z,78.58
2024-01-30T21:51:29.826Z,79.90
2024-01-30T21:54:01.640Z,81.58
2024-01-30T21:56:33.848Z,82.51
2024-01-30T21:59:03.925Z,84.71
2024-01-30T22:01:33.824Z,86.06
2024-01-30T22:04:07.967Z,87.42
2024-01-30T22:06:40.956Z,87.50
2024-01-30T22:09:13.274Z,88.48
2024-01-30T22:11:44.366Z,90.51
2024-01-30T22:14:39.420Z,91.23
2024-01-30T22:17:09.834Z,92.42
2024-01-30T22:26:06.548Z,95.36
2024-01-30T22:28:37.355Z,95.91
2024-01-30T22:31:07.591Z,96.63
2024-01-30T22:33:37.555Z,96.87
2024-01-30T22:36:07.721Z,97.85
2024-01-30T22:38:38.351Z,98.70
2024-01-30T22:41:08.574Z,99.15
2024-01-30T22:43:38.899Z,99.48
2024-01-30T22:46:09.170Z,99.99
2024-01-30T22:48:39.046Z,99.99
2024-01-30T22:51:09.361Z,99.99
2024-01-30T22:53:39.801Z,99.99
2024-01-30T22:56:10.237Z,99.99
2024-01-30T22:58:40.142Z,99.99
2024-01-30T23:03:58.872Z,99.99
2024-01-30T23:09:26.213Z,99.99
2024-01-30T23:12:05.359Z,99.99
2024-01-30T23:15:07.050Z,99.99
2024-01-30T23:18:10.983Z,99.99
2024-01-30T23:20:41.468Z,99.99
2024-01-30T23:23:12.402Z,99.99
2024-01-30T23:25:43.711Z,99.99
2024-01-30T23:28:14.063Z,99.99
2024-01-30T23:30:44.708Z,99.99
2024-01-30T23:33:17.755Z,99.99
2024-01-30T23:35:48.329Z,99.99
2024-01-30T23:38:46.346Z,99.99
2024-01-30T23:41:17.767Z,99.99
2024-01-30T23:43:57.103Z,99.99
2024-01-30T23:46:28.142Z,99.99
2024-01-30T23:48:58.441Z,99.99
2024-01-30T23:51:38.314Z,99.99
2024-01-30T23:56:53.533Z,99.99
2024-01-30T23:59:24.932Z,99.99
